Terminal Aerodrome Forecast
Issued by NWS Paducah, KY

Home | Current Version | Previous Version | Text Only | Print | Product List | Glossary On
Versions: 1 2 3 4 5 6 7 8 9 10 11 12 13 14 15 16 17 18 19 20 21 22 23 24 25 26 27 28 29 30 31 32 33 34 35 36 37 38 39 40 41 42 43 44 45 46 47 48 49
000
FTUS43 KPAH 171513 AAA
TAFEVV
TAF AMD
KEVV 171513Z 1715/1812 VRB03KT P6SM SCT015 BKN100
      TEMPO 1715/1717 BKN015
     FM171700 22007KT P6SM VCSH SCT025 BKN050
     FM172100 23008KT P6SM VCTS BKN030CB
     FM180200 VRB04KT P6SM VCSH SCT020 BKN040
     FM180800 VRB03KT 5SM BR VCSH SCT005 BKN010=

USA.gov is the U.S. government's official web portal to all federal, state and local government web resources and services.